Time;durP1;ratioP1;P1;durP2;ratioP2;P2;SDS_P1;SDS_P2;PMS_P1;PMS_P2;Temp;Humidity;BMP_temperature;BMP_pressure;BME280_temperature;BME280_humidity;BME280_pressure;Samples;Min_cycle;Max_cycle;Signal;HPM_P1;HPM_P2
2022/05/31 00:01:56;;;;;;;4.73;2.53;;;8.70;47.10;;;;;;5049792;28;46389;-61
2022/05/31 00:04:22;;;;;;;3.90;2.67;;;8.70;47.30;;;;;;5046217;28;46410;-62
2022/05/31 00:06:48;;;;;;;5.40;2.50;;;8.60;47.50;;;;;;5050755;28;46456;-61
2022/05/31 00:09:14;;;;;;;5.40;2.83;;;8.50;47.80;;;;;;5049720;28;46059;-61
2022/05/31 00:11:43;;;;;;;3.30;2.17;;;8.40;48.00;;;;;;5050775;28;46480;-61
2022/05/31 00:14:11;;;;;;;3.90;2.40;;;8.30;48.10;;;;;;5049874;28;46521;-62
2022/05/31 00:16:37;;;;;;;4.67;2.53;;;8.20;48.30;;;;;;5050024;28;46350;-61
2022/05/31 00:19:02;;;;;;;3.30;2.13;;;8.20;48.50;;;;;;5044986;28;46523;-61
2022/05/31 00:21:39;;;;;;;5.40;2.40;;;8.10;48.50;;;;;;5049883;28;46442;-61
2022/05/31 00:24:07;;;;;;;8.80;2.77;;;8.10;48.70;;;;;;5049723;28;47318;-61
2022/05/31 00:26:32;;;;;;;5.33;2.60;;;8.00;48.50;;;;;;5050090;28;46362;-61
2022/05/31 00:28:58;;;;;;;4.20;2.40;;;8.00;48.70;;;;;;5048667;28;46304;-63
2022/05/31 00:31:23;;;;;;;4.50;2.70;;;7.90;48.70;;;;;;5051051;28;45848;-61
2022/05/31 00:33:49;;;;;;;5.13;2.10;;;7.90;48.80;;;;;;5051629;28;46224;-61
2022/05/31 00:36:16;;;;;;;3.37;2.20;;;7.90;48.80;;;;;;5048785;28;46419;-61
2022/05/31 00:38:42;;;;;;;4.17;2.80;;;7.80;49.20;;;;;;5052318;28;45906;-61
2022/05/31 00:41:24;;;;;;;8.20;2.60;;;7.70;49.30;;;;;;5049088;28;46048;-62
2022/05/31 00:44:05;;;;;;;4.70;3.03;;;7.70;49.80;;;;;;5052066;28;47381;-62
2022/05/31 00:46:40;;;;;;;2.80;2.17;;;7.60;49.70;;;;;;5047090;28;46542;-62
2022/05/31 00:49:09;;;;;;;5.00;2.70;;;7.60;50.00;;;;;;5049528;28;46386;-62
2022/05/31 00:51:42;;;;;;;3.90;2.20;;;7.50;49.90;;;;;;5051326;28;46465;-61
2022/05/31 00:54:13;;;;;;;7.60;2.50;;;7.50;50.30;;;;;;5051890;28;47376;-62
2022/05/31 00:56:39;;;;;;;3.40;2.33;;;7.50;50.40;;;;;;5051181;28;46497;-62
2022/05/31 00:59:13;;;;;;;4.40;3.00;;;7.50;50.50;;;;;;5050349;28;46460;-62
2022/05/31 01:01:41;;;;;;;4.00;2.70;;;7.40;50.40;;;;;;5047496;28;46496;-62
2022/05/31 01:04:07;;;;;;;8.30;3.00;;;7.40;50.40;;;;;;5051310;28;46520;-62
2022/05/31 01:06:33;;;;;;;4.10;2.60;;;7.40;50.40;;;;;;5050931;28;46363;-61
2022/05/31 01:09:00;;;;;;;3.33;2.73;;;7.40;50.50;;;;;;5050582;28;46433;-61
2022/05/31 01:11:28;;;;;;;3.07;2.50;;;7.50;50.50;;;;;;5052340;28;46154;-62
2022/05/31 01:13:55;;;;;;;5.80;2.57;;;7.50;50.50;;;;;;5053867;28;47235;-61
2022/05/31 01:16:21;;;;;;;5.43;3.23;;;7.60;50.50;;;;;;5059447;28;46377;-63
2022/05/31 01:18:47;;;;;;;3.90;2.80;;;7.60;50.50;;;;;;5054905;28;46379;-61
2022/05/31 01:21:13;;;;;;;5.90;3.23;;;7.70;50.60;;;;;;5059111;28;46453;-62
2022/05/31 01:23:46;;;;;;;6.13;3.37;;;7.70;50.60;;;;;;5053425;28;46141;-60
2022/05/31 01:26:46;;;;;;;4.30;3.00;;;7.70;50.60;;;;;;5051405;28;46382;-62
2022/05/31 01:29:23;;;;;;;3.93;2.60;;;7.80;50.70;;;;;;5053347;28;46515;-61
2022/05/31 01:32:06;;;;;;;4.13;3.20;;;7.90;50.50;;;;;;5056174;28;46362;-62
2022/05/31 01:34:55;;;;;;;4.17;2.80;;;7.90;50.10;;;;;;5051837;28;46635;-62
2022/05/31 01:37:37;;;;;;;4.43;3.10;;;8.00;50.20;;;;;;5055915;28;46571;-61
2022/05/31 01:40:09;;;;;;;4.10;3.00;;;8.10;50.00;;;;;;5055264;28;46509;-63
2022/05/31 01:42:42;;;;;;;6.60;3.23;;;8.10;50.00;;;;;;5053587;28;46285;-62
2022/05/31 01:45:08;;;;;;;3.07;2.40;;;8.20;50.00;;;;;;5053498;28;49049;-61
2022/05/31 01:47:36;;;;;;;3.57;2.70;;;8.20;49.90;;;;;;5052943;28;46297;-62
2022/05/31 01:50:05;;;;;;;3.27;2.33;;;8.20;50.00;;;;;;5054307;28;45752;-61
2022/05/31 01:52:32;;;;;;;5.10;3.00;;;8.20;50.10;;;;;;5053897;28;46447;-61
2022/05/31 01:54:59;;;;;;;6.90;3.60;;;8.20;50.20;;;;;;5055786;28;46487;-61
2022/05/31 01:57:25;;;;;;;4.63;3.40;;;8.20;50.40;;;;;;5050086;28;46359;-61
2022/05/31 01:59:55;;;;;;;4.60;3.20;;;8.20;50.50;;;;;;5052779;28;46417;-61
2022/05/31 02:02:21;;;;;;;5.80;3.23;;;8.20;50.90;;;;;;5052163;28;46440;-62
2022/05/31 02:04:47;;;;;;;7.70;2.90;;;8.10;51.00;;;;;;5050498;28;46605;-62
2022/05/31 02:07:16;;;;;;;4.07;2.77;;;8.10;51.00;;;;;;5047092;28;46431;-62
2022/05/31 02:09:44;;;;;;;4.77;3.20;;;8.10;51.10;;;;;;5045748;28;45993;-63
2022/05/31 02:12:11;;;;;;;8.20;3.20;;;8.00;50.90;;;;;;5046753;28;45885;-62
2022/05/31 02:14:38;;;;;;;9.13;3.63;;;8.00;50.90;;;;;;5051268;28;47067;-62
2022/05/31 02:17:04;;;;;;;13.23;3.50;;;8.10;51.00;;;;;;5049593;27;46534;-62
2022/05/31 02:19:30;;;;;;;4.60;3.40;;;8.00;50.90;;;;;;5050984;28;46445;-63
2022/05/31 02:21:59;;;;;;;3.90;2.93;;;8.00;51.00;;;;;;5052377;28;46308;-62
2022/05/31 02:24:26;;;;;;;4.93;3.50;;;8.00;50.90;;;;;;5047753;28;46189;-61
2022/05/31 02:26:52;;;;;;;4.07;3.20;;;8.10;51.00;;;;;;5049283;28;46493;-60
2022/05/31 02:29:24;;;;;;;4.80;3.07;;;8.10;51.00;;;;;;5047384;28;46586;-62
2022/05/31 02:31:50;;;;;;;5.33;3.37;;;8.10;51.00;;;;;;5047745;28;46487;-62
2022/05/31 02:34:19;;;;;;;5.67;3.03;;;8.20;51.10;;;;;;5045488;28;46994;-62
2022/05/31 02:36:45;;;;;;;4.30;2.97;;;8.20;51.10;;;;;;5051283;28;46676;-61
2022/05/31 02:39:10;;;;;;;3.10;2.73;;;8.20;51.10;;;;;;5054388;28;46383;-61
2022/05/31 02:41:36;;;;;;;4.70;3.57;;;8.20;51.10;;;;;;5049600;28;46570;-60
2022/05/31 02:44:02;;;;;;;11.43;2.73;;;8.20;51.10;;;;;;5050960;28;47012;-62
2022/05/31 02:46:28;;;;;;;3.60;2.77;;;8.30;51.10;;;;;;5048940;28;46386;-62
2022/05/31 02:48:53;;;;;;;4.97;3.40;;;8.30;51.10;;;;;;5052754;28;46423;-61
2022/05/31 02:51:19;;;;;;;4.57;3.10;;;8.30;51.50;;;;;;5051712;28;46403;-62
2022/05/31 02:53:45;;;;;;;4.30;3.50;;;8.30;51.60;;;;;;5048427;28;46497;-62
2022/05/31 02:56:10;;;;;;;6.10;3.40;;;8.30;51.60;;;;;;5055006;28;46566;-62
2022/05/31 02:58:36;;;;;;;4.27;2.80;;;8.40;51.70;;;;;;5049103;28;46484;-61
2022/05/31 03:01:17;;;;;;;3.97;2.97;;;8.40;51.80;;;;;;5053429;28;46337;-62
2022/05/31 03:03:42;;;;;;;4.57;2.80;;;8.30;52.10;;;;;;5051649;28;47431;-62
2022/05/31 03:06:08;;;;;;;4.00;3.13;;;8.30;53.70;;;;;;5052777;28;45795;-62
2022/05/31 03:08:34;;;;;;;4.73;2.70;;;8.30;52.70;;;;;;5049475;28;46495;-61
2022/05/31 03:11:00;;;;;;;6.83;3.33;;;8.30;52.70;;;;;;5049556;28;46551;-62
2022/05/31 03:13:28;;;;;;;4.97;3.03;;;8.30;52.70;;;;;;5047142;28;47088;-62
2022/05/31 03:15:58;;;;;;;4.50;3.60;;;8.30;52.70;;;;;;5049597;28;46096;-61
2022/05/31 03:18:32;;;;;;;4.03;2.80;;;8.30;52.70;;;;;;5051710;28;46476;-62
2022/05/31 03:21:04;;;;;;;3.90;2.73;;;8.30;52.70;;;;;;5054212;28;46459;-62
2022/05/31 03:23:39;;;;;;;5.20;3.03;;;8.30;52.70;;;;;;5052716;28;47041;-63
2022/05/31 03:26:08;;;;;;;4.10;3.00;;;8.30;52.80;;;;;;5052836;28;46333;-63
2022/05/31 03:28:35;;;;;;;5.20;2.77;;;8.30;52.80;;;;;;5052875;28;46663;-62
2022/05/31 03:31:01;;;;;;;3.30;2.70;;;8.30;52.90;;;;;;5048825;28;46682;-62
2022/05/31 03:33:28;;;;;;;8.63;3.20;;;8.40;52.90;;;;;;5053381;28;46378;-63
2022/05/31 03:35:53;;;;;;;6.80;3.00;;;8.50;52.90;;;;;;5046116;28;46006;-61
2022/05/31 03:38:20;;;;;;;7.63;3.10;;;8.60;52.70;;;;;;5049620;28;46565;-62
2022/05/31 03:40:58;;;;;;;7.23;3.87;;;8.70;52.50;;;;;;5051016;28;46473;-62
2022/05/31 03:43:26;;;;;;;6.03;3.97;;;8.80;52.30;;;;;;5048173;28;47355;-62
2022/05/31 03:45:52;;;;;;;4.90;3.70;;;8.90;51.90;;;;;;5048496;28;45840;-61
2022/05/31 03:48:18;;;;;;;6.60;3.70;;;8.90;51.90;;;;;;5044463;28;46518;-62
2022/05/31 03:50:44;;;;;;;4.40;3.50;;;8.90;51.70;;;;;;5052515;28;46471;-62
2022/05/31 03:53:13;;;;;;;3.60;3.00;;;8.90;52.30;;;;;;5048875;28;46456;-62
2022/05/31 03:55:41;;;;;;;6.47;2.67;;;8.90;52.80;;;;;;5053475;28;46382;-61
2022/05/31 03:58:08;;;;;;;3.50;2.80;;;8.80;53.20;;;;;;5050065;28;46639;-62
2022/05/31 04:00:34;;;;;;;4.30;3.07;;;8.70;53.70;;;;;;5053914;28;46291;-62
2022/05/31 04:03:00;;;;;;;5.53;3.00;;;8.70;54.10;;;;;;5056648;28;48245;-64
2022/05/31 04:05:26;;;;;;;4.97;3.00;;;8.60;54.30;;;;;;5056937;28;46364;-63
2022/05/31 04:07:53;;;;;;;9.27;3.30;;;8.60;54.60;;;;;;5050509;28;45772;-62
2022/05/31 04:10:19;;;;;;;3.57;2.73;;;8.60;54.60;;;;;;5049868;28;46373;-62
2022/05/31 04:12:44;;;;;;;7.33;3.80;;;8.70;54.50;;;;;;5054912;28;46502;-62
2022/05/31 04:15:10;;;;;;;4.23;3.43;;;8.80;54.50;;;;;;5046752;28;46409;-63
2022/05/31 04:17:36;;;;;;;6.70;4.37;;;8.90;54.50;;;;;;5052367;28;46502;-63
2022/05/31 04:20:02;;;;;;;6.00;3.80;;;9.00;54.40;;;;;;5048631;28;46042;-63
2022/05/31 04:22:28;;;;;;;7.40;3.43;;;9.00;54.40;;;;;;5049727;28;46443;-62
2022/05/31 04:24:57;;;;;;;9.60;3.93;;;9.00;54.30;;;;;;5052749;28;46401;-62
2022/05/31 04:27:22;;;;;;;5.20;3.33;;;9.10;54.30;;;;;;5047081;28;46287;-62
2022/05/31 04:29:48;;;;;;;6.03;3.83;;;9.20;54.20;;;;;;5053110;28;46358;-63
2022/05/31 04:32:15;;;;;;;4.00;3.10;;;9.30;54.10;;;;;;5046779;28;46400;-61
2022/05/31 04:34:41;;;;;;;9.50;3.40;;;9.40;54.00;;;;;;5053456;28;46474;-63
2022/05/31 04:37:07;;;;;;;7.33;3.87;;;9.60;53.40;;;;;;5050786;28;46528;-62
2022/05/31 04:39:33;;;;;;;6.30;3.70;;;9.70;52.90;;;;;;5053185;28;46481;-63
2022/05/31 04:41:58;;;;;;;4.30;3.00;;;10.00;51.70;;;;;;5048302;28;46526;-62
2022/05/31 04:44:25;;;;;;;6.00;2.80;;;10.80;50.70;;;;;;5052017;28;46446;-62
2022/05/31 04:46:51;;;;;;;3.73;2.30;;;12.60;49.20;;;;;;5056208;28;46357;-62
2022/05/31 04:49:16;;;;;;;3.87;2.20;;;14.20;46.30;;;;;;5053663;28;46510;-63
2022/05/31 04:51:43;;;;;;;3.17;1.90;;;15.90;43.80;;;;;;5053149;28;46374;-62
2022/05/31 04:54:09;;;;;;;6.37;2.63;;;16.90;40.30;;;;;;5051644;28;46103;-62
2022/05/31 04:56:35;;;;;;;4.10;2.47;;;17.60;39.50;;;;;;5056279;28;46394;-62
2022/05/31 04:59:02;;;;;;;5.60;2.50;;;18.50;37.90;;;;;;5052784;28;46478;-62
2022/05/31 05:01:28;;;;;;;3.13;2.20;;;19.20;36.10;;;;;;5051819;28;46711;-62
2022/05/31 05:03:54;;;;;;;7.40;2.77;;;19.90;34.10;;;;;;5061528;28;46798;-63
2022/05/31 05:06:21;;;;;;;6.27;2.03;;;20.40;32.20;;;;;;5049530;28;46049;-61
2022/05/31 05:08:47;;;;;;;7.00;2.53;;;21.10;32.20;;;;;;5052868;28;46602;-63
2022/05/31 05:11:16;;;;;;;5.50;3.60;;;21.40;30.60;;;;;;5049947;28;46380;-62
2022/05/31 05:13:42;;;;;;;6.63;2.30;;;21.40;30.60;;;;;;5052186;28;46387;-62
2022/05/31 05:16:09;;;;;;;3.00;2.20;;;21.90;29.40;;;;;;5054160;28;46499;-62
2022/05/31 05:18:35;;;;;;;4.87;2.10;;;22.80;27.80;;;;;;5049283;28;46380;-62
2022/05/31 05:21:07;;;;;;;3.43;2.53;;;23.40;26.00;;;;;;5050476;28;46905;-62
2022/05/31 05:23:33;;;;;;;3.77;2.13;;;24.20;25.20;;;;;;5053361;28;46422;-62
2022/05/31 05:25:59;;;;;;;4.50;2.40;;;23.40;25.70;;;;;;5053405;28;46290;-61
2022/05/31 05:31:19;;;;;;;3.40;2.17;;;23.10;25.00;;;;;;5050962;28;46364;-62
2022/05/31 05:33:45;;;;;;;6.33;2.73;;;22.00;26.00;;;;;;5053422;28;47277;-61
2022/05/31 05:36:10;;;;;;;4.10;2.67;;;21.20;26.70;;;;;;5051627;28;46393;-62
2022/05/31 05:38:36;;;;;;;5.63;1.90;;;22.00;26.30;;;;;;5053343;28;46298;-61
2022/05/31 05:41:01;;;;;;;4.20;2.00;;;22.50;24.80;;;;;;5052955;28;46286;-61
2022/05/31 05:43:27;;;;;;;4.20;1.77;;;21.20;26.60;;;;;;5047902;28;46412;-62
2022/05/31 05:45:53;;;;;;;4.20;2.30;;;19.90;28.20;;;;;;5053937;28;45819;-62
2022/05/31 05:48:18;;;;;;;5.40;2.57;;;19.00;29.50;;;;;;5051984;28;46366;-62
2022/05/31 05:50:44;;;;;;;3.90;2.70;;;18.50;30.50;;;;;;5055230;28;47209;-61
2022/05/31 05:53:10;;;;;;;4.80;2.30;;;17.90;31.60;;;;;;5053919;28;45902;-62
2022/05/31 05:55:38;;;;;;;5.30;2.63;;;17.50;32.20;;;;;;5057718;28;46366;-62
2022/05/31 05:58:08;;;;;;;3.80;2.30;;;17.10;33.40;;;;;;5050626;28;46551;-63
2022/05/31 06:00:42;;;;;;;7.23;2.30;;;16.80;35.60;;;;;;5054033;28;48106;-63
2022/05/31 06:03:32;;;;;;;4.77;2.60;;;17.00;38.30;;;;;;5052110;28;46331;-62
2022/05/31 06:05:59;;;;;;;5.80;2.63;;;17.20;39.40;;;;;;5052782;28;46343;-63
2022/05/31 06:08:30;;;;;;;4.33;2.30;;;17.40;39.30;;;;;;5052799;28;46492;-62
2022/05/31 06:11:04;;;;;;;3.30;2.17;;;17.50;39.40;;;;;;5049757;28;47295;-62
2022/05/31 06:13:35;;;;;;;6.80;2.53;;;17.60;39.00;;;;;;5053602;28;46097;-62
2022/05/31 06:16:02;;;;;;;5.80;1.80;;;17.80;38.60;;;;;;5045663;28;46371;-62
2022/05/31 06:18:34;;;;;;;4.57;1.83;;;18.10;37.60;;;;;;5050215;28;45901;-62
2022/05/31 06:21:06;;;;;;;4.90;1.90;;;18.20;36.40;;;;;;5050233;28;46267;-61
2022/05/31 06:23:34;;;;;;;3.67;1.63;;;18.00;35.10;;;;;;5053946;28;46468;-61
2022/05/31 06:26:00;;;;;;;3.60;1.93;;;18.00;34.40;;;;;;5052828;28;46610;-62
2022/05/31 06:28:25;;;;;;;4.00;2.00;;;18.40;33.30;;;;;;5051938;28;46353;-63
2022/05/31 06:30:51;;;;;;;3.10;1.63;;;18.70;32.80;;;;;;5052326;28;46306;-61
2022/05/31 06:33:16;;;;;;;4.47;1.87;;;19.00;32.90;;;;;;5048856;28;45774;-62
2022/05/31 06:35:42;;;;;;;7.60;2.07;;;19.30;32.00;;;;;;5055107;28;45772;-62
2022/05/31 06:38:07;;;;;;;4.30;2.40;;;19.60;31.30;;;;;;5051278;28;46466;-62
2022/05/31 06:40:33;;;;;;;4.63;2.10;;;19.60;31.40;;;;;;5052754;28;46427;-62
2022/05/31 06:42:59;;;;;;;4.40;2.20;;;19.70;31.20;;;;;;5054755;28;46393;-62
2022/05/31 06:45:25;;;;;;;3.80;2.13;;;20.00;30.60;;;;;;5053282;28;46443;-62
2022/05/31 06:47:51;;;;;;;4.57;1.50;;;20.40;29.90;;;;;;5054816;28;46674;-61
2022/05/31 06:50:17;;;;;;;4.80;2.10;;;20.50;29.50;;;;;;5048432;28;46326;-62
2022/05/31 06:58:11;;;;;;;3.33;1.73;;;20.70;28.60;;;;;;5051562;28;46413;-62
2022/05/31 07:00:37;;;;;;;5.77;3.90;;;20.70;28.50;;;;;;5046642;28;46380;-62
2022/05/31 07:03:03;;;;;;;3.97;2.07;;;20.80;28.20;;;;;;5054735;28;46448;-62
2022/05/31 07:05:30;;;;;;;2.80;1.50;;;20.80;28.00;;;;;;5050835;28;46590;-62
2022/05/31 07:07:56;;;;;;;4.43;1.60;;;20.60;27.80;;;;;;5047196;28;46012;-62
2022/05/31 07:10:23;;;;;;;3.83;1.70;;;20.50;27.50;;;;;;5049304;28;46563;-63
2022/05/31 07:12:48;;;;;;;2.93;1.90;;;20.40;27.50;;;;;;5052210;28;46429;-63
2022/05/31 07:15:15;;;;;;;5.93;1.70;;;20.40;27.70;;;;;;5049787;28;46381;-62
2022/05/31 07:17:41;;;;;;;5.27;1.80;;;20.40;27.70;;;;;;5050623;28;46576;-62
2022/05/31 07:20:08;;;;;;;4.50;1.63;;;20.30;27.80;;;;;;5050784;28;46493;-61
2022/05/31 07:22:35;;;;;;;3.20;1.40;;;20.40;27.80;;;;;;5050656;28;46446;-61
2022/05/31 07:25:01;;;;;;;3.80;1.77;;;20.50;27.70;;;;;;5049645;28;46319;-62
2022/05/31 07:27:27;;;;;;;13.50;2.43;;;20.20;27.50;;;;;;5049410;28;46330;-61
2022/05/31 07:29:54;;;;;;;5.63;1.70;;;20.20;28.00;;;;;;5049928;28;46592;-61
2022/05/31 07:32:20;;;;;;;19.63;1.70;;;20.30;28.20;;;;;;5050244;28;46390;-63
2022/05/31 07:34:45;;;;;;;6.40;1.73;;;20.40;28.10;;;;;;5051260;28;46411;-62
2022/05/31 07:37:12;;;;;;;6.00;1.60;;;20.20;28.30;;;;;;5051922;28;46547;-62
2022/05/31 07:39:38;;;;;;;3.23;1.60;;;20.40;28.50;;;;;;5049322;28;46544;-63
2022/05/31 07:42:04;;;;;;;9.33;1.47;;;20.50;28.60;;;;;;5053609;28;46212;-63
2022/05/31 07:44:30;;;;;;;3.37;1.70;;;20.60;28.40;;;;;;5053573;28;46404;-63
2022/05/31 07:46:58;;;;;;;3.53;1.50;;;20.60;27.90;;;;;;5048563;28;46081;-61
2022/05/31 07:49:24;;;;;;;7.40;1.63;;;20.50;28.00;;;;;;5050801;28;46484;-61
2022/05/31 07:51:50;;;;;;;6.17;2.67;;;20.50;28.30;;;;;;5050986;28;46337;-62
2022/05/31 07:54:15;;;;;;;3.57;1.63;;;20.30;28.30;;;;;;5049136;28;45835;-63
2022/05/31 07:56:41;;;;;;;3.30;1.50;;;20.30;28.30;;;;;;5050016;28;46399;-61
2022/05/31 07:59:07;;;;;;;3.83;1.77;;;20.50;28.30;;;;;;5049306;28;46860;-61
2022/05/31 08:01:33;;;;;;;3.40;1.50;;;20.50;28.10;;;;;;5047803;28;46508;-61
2022/05/31 08:03:59;;;;;;;7.60;2.27;;;20.70;28.00;;;;;;5050782;28;45912;-62
2022/05/31 08:06:29;;;;;;;5.30;1.60;;;20.70;28.00;;;;;;5050336;28;45932;-62
2022/05/31 08:08:57;;;;;;;3.00;1.53;;;20.80;27.90;;;;;;5051020;28;46474;-61
2022/05/31 08:11:31;;;;;;;7.93;1.60;;;20.70;28.00;;;;;;5045946;28;46335;-62
2022/05/31 08:13:57;;;;;;;3.47;1.23;;;20.80;28.00;;;;;;5048801;28;46333;-62
2022/05/31 08:16:25;;;;;;;3.70;1.60;;;20.80;27.70;;;;;;5047392;28;46488;-61
2022/05/31 08:18:52;;;;;;;4.00;1.40;;;20.80;27.50;;;;;;5049546;28;46505;-60
2022/05/31 08:21:21;;;;;;;2.90;1.40;;;20.90;27.40;;;;;;5052871;28;46445;-60
2022/05/31 08:23:47;;;;;;;6.50;1.50;;;20.90;26.90;;;;;;5055824;28;46505;-61
2022/05/31 08:26:13;;;;;;;3.30;1.57;;;21.00;26.60;;;;;;5050103;28;46575;-61
2022/05/31 08:28:39;;;;;;;4.40;1.60;;;21.20;26.50;;;;;;5052036;28;46377;-61
2022/05/31 08:31:10;;;;;;;3.33;1.40;;;21.20;27.30;;;;;;5052397;28;46436;-62
2022/05/31 08:33:36;;;;;;;3.53;1.30;;;21.40;26.10;;;;;;5048805;28;46371;-61
2022/05/31 08:36:02;;;;;;;2.70;1.33;;;21.40;25.70;;;;;;5055472;28;46397;-62
2022/05/31 08:38:28;;;;;;;3.10;1.43;;;21.30;25.70;;;;;;5049184;28;47238;-63
2022/05/31 08:41:16;;;;;;;2.53;1.20;;;21.40;25.60;;;;;;5053446;28;46426;-61
2022/05/31 08:43:47;;;;;;;2.93;1.30;;;21.30;25.00;;;;;;5051507;28;46513;-61
2022/05/31 08:46:36;;;;;;;3.60;1.50;;;21.10;25.30;;;;;;5051759;28;46480;-62
2022/05/31 08:51:52;;;;;;;3.10;1.40;;;21.20;25.40;;;;;;5049582;28;47508;-61
2022/05/31 08:52:22;;;;;;;2.60;1.30;;;21.20;24.90;;;;;;5052046;28;46460;-61
2022/05/31 08:57:54;;;;;;;3.30;1.40;;;20.90;25.00;;;;;;5048428;28;46499;-61
2022/05/31 09:00:38;;;;;;;3.57;1.60;;;21.10;25.10;;;;;;5049528;28;47984;-61
2022/05/31 09:03:24;;;;;;;4.33;1.20;;;21.30;24.70;;;;;;5049182;28;46577;-61
2022/05/31 09:05:55;;;;;;;3.80;1.57;;;21.60;24.20;;;;;;5051102;28;46380;-61
2022/05/31 09:08:41;;;;;;;3.10;1.47;;;21.80;23.70;;;;;;5048018;28;46415;-61
2022/05/31 09:11:21;;;;;;;3.20;1.33;;;21.90;23.80;;;;;;5049200;28;46451;-63
2022/05/31 09:14:14;;;;;;;3.40;1.33;;;21.80;23.70;;;;;;5050649;28;46389;-62
2022/05/31 09:16:45;;;;;;;3.40;1.40;;;21.90;23.80;;;;;;5048747;28;45757;-61
2022/05/31 09:19:16;;;;;;;3.23;1.23;;;22.20;24.00;;;;;;5050156;28;46353;-61
2022/05/31 09:21:46;;;;;;;3.43;1.50;;;22.40;23.00;;;;;;5053805;28;47069;-61
2022/05/31 09:24:18;;;;;;;4.87;1.73;;;22.50;22.60;;;;;;5047170;28;46573;-61
2022/05/31 09:27:11;;;;;;;5.40;1.40;;;22.30;22.60;;;;;;5051270;28;46511;-61
2022/05/31 09:30:14;;;;;;;5.57;1.30;;;22.30;22.10;;;;;;5044425;28;46704;-62
2022/05/31 09:33:17;;;;;;;3.20;1.40;;;22.40;22.00;;;;;;5054603;28;46587;-61
2022/05/31 09:35:57;;;;;;;5.47;1.57;;;22.60;22.20;;;;;;5053034;28;46505;-62
2022/05/31 09:38:38;;;;;;;3.47;1.30;;;22.70;22.60;;;;;;5053716;28;46184;-62
2022/05/31 09:41:24;;;;;;;2.60;1.23;;;22.80;22.30;;;;;;5057694;28;46453;-61
2022/05/31 09:44:23;;;;;;;5.57;1.40;;;22.90;21.60;;;;;;5052114;28;47059;-61
2022/05/31 09:47:11;;;;;;;3.27;1.20;;;23.00;21.40;;;;;;5054010;28;46494;-61
2022/05/31 09:49:51;;;;;;;3.53;1.43;;;23.10;21.40;;;;;;5051016;28;46628;-61
2022/05/31 09:52:22;;;;;;;2.93;1.23;;;23.20;21.50;;;;;;5055931;28;46568;-61
2022/05/31 09:58:27;;;;;;;3.13;1.43;;;23.30;21.10;;;;;;5051325;28;46418;-60
2022/05/31 10:01:13;;;;;;;2.73;1.40;;;23.20;20.90;;;;;;5052237;28;46425;-61
2022/05/31 10:03:43;;;;;;;8.43;1.70;;;23.20;20.40;;;;;;5052692;28;46613;-61
2022/05/31 10:06:11;;;;;;;3.73;1.60;;;23.20;20.20;;;;;;5050152;28;46344;-63
2022/05/31 10:08:37;;;;;;;6.70;1.60;;;23.10;20.20;;;;;;5047314;28;46328;-61
2022/05/31 10:11:05;;;;;;;3.97;1.40;;;23.30;20.60;;;;;;5052294;28;45767;-63
2022/05/31 10:13:40;;;;;;;4.33;1.40;;;23.40;20.70;;;;;;5051964;28;46428;-63
2022/05/31 10:16:27;;;;;;;3.80;1.67;;;23.50;20.80;;;;;;5052013;28;46604;-61
2022/05/31 10:18:55;;;;;;;3.53;1.57;;;23.70;20.50;;;;;;5048526;28;46341;-61
2022/05/31 10:21:49;;;;;;;3.57;1.47;;;23.80;20.60;;;;;;5053459;28;46386;-62
2022/05/31 10:24:17;;;;;;;3.90;1.60;;;23.80;20.30;;;;;;5044202;28;46380;-61
2022/05/31 10:26:45;;;;;;;4.20;1.57;;;24.10;20.40;;;;;;5054848;28;46488;-63
2022/05/31 10:29:16;;;;;;;8.13;1.93;;;24.20;19.80;;;;;;5048944;28;45792;-60
2022/05/31 10:31:46;;;;;;;3.57;1.50;;;24.20;19.50;;;;;;5054470;28;46334;-61
2022/05/31 10:34:33;;;;;;;5.33;1.73;;;24.30;18.90;;;;;;5048953;28;46436;-61
2022/05/31 10:37:00;;;;;;;3.30;1.40;;;24.80;18.90;;;;;;5081165;27;47018;-60
2022/05/31 10:39:32;;;;;;;6.63;1.70;;;25.10;17.90;;;;;;5052346;28;46350;-62
2022/05/31 10:42:02;;;;;;;5.20;1.80;;;25.30;17.40;;;;;;5051847;28;46444;-62
2022/05/31 10:45:02;;;;;;;8.00;1.90;;;25.00;17.60;;;;;;5049311;28;45849;-62
2022/05/31 10:47:28;;;;;;;4.30;1.73;;;24.50;18.50;;;;;;5046602;28;46171;-61
2022/05/31 10:49:55;;;;;;;3.80;1.60;;;24.40;18.80;;;;;;5053565;28;46389;-61
2022/05/31 10:52:29;;;;;;;10.03;2.40;;;24.60;18.50;;;;;;5055027;28;46290;-60
2022/05/31 10:55:30;;;;;;;3.47;1.73;;;24.60;18.80;;;;;;5055159;28;46444;-63
2022/05/31 10:58:32;;;;;;;7.17;1.90;;;24.90;18.80;;;;;;5055654;28;46442;-63
2022/05/31 11:01:18;;;;;;;3.40;1.47;;;25.40;17.90;;;;;;5052627;28;45754;-63
2022/05/31 11:03:53;;;;;;;4.87;1.60;;;25.80;17.20;;;;;;5052422;28;46361;-63
2022/05/31 11:06:40;;;;;;;5.07;1.93;;;26.10;16.90;;;;;;5049945;28;46667;-63
2022/05/31 11:12:45;;;;;;;4.90;1.73;;;25.80;17.30;;;;;;5049781;28;46282;-62
2022/05/31 11:15:16;;;;;;;3.73;1.50;;;25.60;18.40;;;;;;5047084;28;46682;-62
2022/05/31 11:18:12;;;;;;;9.20;2.00;;;25.70;17.80;;;;;;5051686;28;46411;-63
2022/05/31 11:20:48;;;;;;;2.90;1.40;;;25.80;17.90;;;;;;5049480;28;46242;-63
2022/05/31 11:23:47;;;;;;;4.47;1.87;;;26.10;17.50;;;;;;5050334;28;45850;-61
2022/05/31 11:26:39;;;;;;;5.63;1.70;;;26.50;16.80;;;;;;5050511;28;46854;-62
2022/05/31 11:29:31;;;;;;;6.00;1.77;;;26.60;16.70;;;;;;5049606;28;46408;-61
2022/05/31 11:32:12;;;;;;;8.93;1.80;;;26.60;16.30;;;;;;5051676;28;46383;-60
2022/05/31 11:35:00;;;;;;;4.43;1.70;;;26.60;16.50;;;;;;5050008;28;46399;-62
2022/05/31 11:37:28;;;;;;;4.30;1.70;;;26.60;16.80;;;;;;5049674;28;46503;-62
2022/05/31 11:40:04;;;;;;;6.80;1.63;;;26.70;17.00;;;;;;5050325;28;46365;-62
2022/05/31 11:42:44;;;;;;;5.20;1.80;;;26.90;15.90;;;;;;5051351;28;47161;-62
2022/05/31 11:45:28;;;;;;;5.73;1.87;;;27.20;16.00;;;;;;5050385;28;46446;-63
2022/05/31 11:47:54;;;;;;;4.70;1.70;;;27.10;14.90;;;;;;5048863;28;46393;-62
2022/05/31 11:50:23;;;;;;;4.67;1.70;;;26.90;15.90;;;;;;5049488;28;46453;-62
2022/05/31 11:53:15;;;;;;;11.33;1.90;;;26.70;15.80;;;;;;5050886;28;46972;-60
2022/05/31 11:55:57;;;;;;;4.93;1.63;;;26.50;15.70;;;;;;5051593;28;46693;-61
2022/05/31 11:58:33;;;;;;;5.53;1.50;;;26.60;15.10;;;;;;5043363;28;46659;-62
2022/05/31 12:01:27;;;;;;;6.20;1.70;;;26.40;15.20;;;;;;5050195;28;46471;-61
2022/05/31 12:04:17;;;;;;;6.57;1.50;;;26.50;15.10;;;;;;5046419;28;46334;-61
2022/05/31 12:07:10;;;;;;;4.70;1.80;;;26.20;13.80;;;;;;5052467;28;46489;-62
2022/05/31 12:09:44;;;;;;;8.77;1.60;;;25.90;13.90;;;;;;5049183;28;46399;-62
2022/05/31 12:12:13;;;;;;;4.00;1.47;;;26.10;14.90;;;;;;5051527;28;46412;-61
2022/05/31 12:14:44;;;;;;;3.90;1.60;;;25.60;14.60;;;;;;5051315;28;47218;-62
2022/05/31 12:17:11;;;;;;;5.53;1.80;;;24.90;14.80;;;;;;5051726;28;45809;-60
2022/05/31 12:19:45;;;;;;;5.37;1.70;;;24.50;15.30;;;;;;5050329;28;46433;-60
2022/05/31 12:22:18;;;;;;;4.00;1.60;;;24.50;16.10;;;;;;5049785;28;46408;-62
2022/05/31 12:24:53;;;;;;;10.10;1.80;;;24.50;15.90;;;;;;5052472;28;46470;-62
2022/05/31 12:27:28;;;;;;;9.73;1.97;;;24.70;16.30;;;;;;5050046;28;46504;-61
2022/05/31 12:30:36;;;;;;;4.20;1.63;;;24.80;15.50;;;;;;5049255;28;46558;-61
2022/05/31 12:33:32;;;;;;;3.73;1.90;;;24.80;14.70;;;;;;5050114;28;46441;-61
2022/05/31 12:35:58;;;;;;;7.27;2.07;;;25.10;14.90;;;;;;5052520;28;47027;-62
2022/05/31 12:38:24;;;;;;;6.77;1.63;;;25.10;14.90;;;;;;5054122;28;45822;-62
2022/05/31 12:40:52;;;;;;;3.80;1.60;;;25.10;15.30;;;;;;5049575;28;45816;-63
2022/05/31 12:43:33;;;;;;;5.83;1.60;;;25.00;15.00;;;;;;5049538;28;46791;-62
2022/05/31 12:45:58;;;;;;;7.27;1.93;;;24.70;15.50;;;;;;5046410;28;46339;-62
2022/05/31 12:48:26;;;;;;;6.03;1.60;;;24.40;15.80;;;;;;5045898;28;46311;-62
2022/05/31 12:50:55;;;;;;;4.87;1.53;;;24.10;16.30;;;;;;5051822;28;46409;-61
2022/05/31 12:53:40;;;;;;;7.53;1.50;;;23.90;17.00;;;;;;5048633;28;45958;-62
2022/05/31 12:56:09;;;;;;;4.70;1.77;;;23.80;17.10;;;;;;5047182;28;46142;-63
2022/05/31 12:58:44;;;;;;;5.47;1.70;;;23.60;17.40;;;;;;5046469;28;46374;-63
2022/05/31 13:01:13;;;;;;;7.60;1.60;;;23.30;17.50;;;;;;5051775;28;46368;-61
2022/05/31 13:03:54;;;;;;;5.40;1.63;;;23.10;17.80;;;;;;5044613;28;45788;-61
2022/05/31 13:06:28;;;;;;;5.93;1.87;;;23.00;17.90;;;;;;5050683;28;47049;-61
2022/05/31 13:09:00;;;;;;;7.80;1.43;;;22.80;18.20;;;;;;5051099;28;46345;-62
2022/05/31 13:19:45;;;;;;;5.20;1.60;;;22.60;19.00;;;;;;5059680;28;46357;-61
2022/05/31 13:22:17;;;;;;;7.90;1.53;;;22.60;19.20;;;;;;5054485;28;46308;-61
2022/05/31 13:25:17;;;;;;;5.30;1.93;;;22.50;19.30;;;;;;5056654;28;46565;-62
2022/05/31 13:27:54;;;;;;;5.37;1.60;;;22.40;19.50;;;;;;5053346;28;48314;-61
2022/05/31 13:30:24;;;;;;;5.27;1.77;;;22.30;20.00;;;;;;5051865;28;46370;-61
2022/05/31 13:32:50;;;;;;;6.07;2.10;;;22.20;20.20;;;;;;5054568;28;46293;-61
2022/05/31 13:35:20;;;;;;;9.23;1.53;;;22.10;20.30;;;;;;5055596;28;46516;-61
2022/05/31 13:37:57;;;;;;;5.70;1.60;;;22.20;20.70;;;;;;5052222;28;46421;-60
2022/05/31 13:40:30;;;;;;;3.70;1.50;;;22.20;20.90;;;;;;5053686;28;46384;-61